sensor_id;sensor_type;location;lat;lon;timestamp;pressure;altitude;pressure_sealevel;temperature;humidity
68075;BME280;54864;52.002;5.468;2022-11-12T00:00:21;103015.19;;;8.34;71.22
68075;BME280;54864;52.002;5.468;2022-11-12T00:01:22;103027.41;;;8.32;70.71
68075;BME280;54864;52.002;5.468;2022-11-12T00:02:24;103021.28;;;8.30;70.98
68075;BME280;54864;52.002;5.468;2022-11-12T00:03:25;103024.78;;;8.31;70.61
68075;BME280;54864;52.002;5.468;2022-11-12T00:04:28;103015.16;;;8.31;70.85
68075;BME280;54864;52.002;5.468;2022-11-12T00:05:30;103026.56;;;8.33;70.55
68075;BME280;54864;52.002;5.468;2022-11-12T00:06:33;103025.66;;;8.31;70.38
68075;BME280;54864;52.002;5.468;2022-11-12T00:07:35;103025.66;;;8.28;70.89
68075;BME280;54864;52.002;5.468;2022-11-12T00:08:37;103024.78;;;8.27;70.61
68075;BME280;54864;52.002;5.468;2022-11-12T00:09:38;103026.53;;;8.27;70.79
68075;BME280;54864;52.002;5.468;2022-11-12T00:10:41;103023.91;;;8.25;70.60
68075;BME280;54864;52.002;5.468;2022-11-12T00:11:41;103020.41;;;8.22;70.35
68075;BME280;54864;52.002;5.468;2022-11-12T00:12:43;103025.66;;;8.23;70.29
68075;BME280;54864;52.002;5.468;2022-11-12T00:13:44;103030.06;;;8.23;70.46
68075;BME280;54864;52.002;5.468;2022-11-12T00:14:46;103025.66;;;8.25;70.37
68075;BME280;54864;52.002;5.468;2022-11-12T00:15:47;103031.81;;;8.27;70.04
68075;BME280;54864;52.002;5.468;2022-11-12T00:16:49;103025.69;;;8.22;70.42
68075;BME280;54864;52.002;5.468;2022-11-12T00:17:50;103018.66;;;8.18;70.36
68075;BME280;54864;52.002;5.468;2022-11-12T00:18:52;103025.66;;;8.25;71.16
68075;BME280;54864;52.002;5.468;2022-11-12T00:19:54;103017.78;;;8.17;70.46
68075;BME280;54864;52.002;5.468;2022-11-12T00:20:56;103025.69;;;8.20;70.26
68075;BME280;54864;52.002;5.468;2022-11-12T00:21:58;103023.91;;;8.16;70.51
68075;BME280;54864;52.002;5.468;2022-11-12T00:23:00;103030.94;;;8.17;70.68
68075;BME280;54864;52.002;5.468;2022-11-12T00:24:01;103018.66;;;8.13;71.44
68075;BME280;54864;52.002;5.468;2022-11-12T00:25:04;103027.44;;;8.17;70.54
68075;BME280;54864;52.002;5.468;2022-11-12T00:26:05;103023.94;;;8.15;70.85
68075;BME280;54864;52.002;5.468;2022-11-12T00:27:07;103025.69;;;8.08;71.35
68075;BME280;54864;52.002;5.468;2022-11-12T00:28:09;103029.19;;;8.07;71.28
68075;BME280;54864;52.002;5.468;2022-11-12T00:29:11;103027.44;;;8.06;70.63
68075;BME280;54864;52.002;5.468;2022-11-12T00:30:12;103023.91;;;8.07;70.37
68075;BME280;54864;52.002;5.468;2022-11-12T00:31:14;103025.69;;;8.08;70.48
68075;BME280;54864;52.002;5.468;2022-11-12T00:32:15;103028.31;;;8.05;71.02
68075;BME280;54864;52.002;5.468;2022-11-12T00:33:17;103025.69;;;8.05;70.98
68075;BME280;54864;52.002;5.468;2022-11-12T00:34:18;103030.06;;;8.06;71.12
68075;BME280;54864;52.002;5.468;2022-11-12T00:35:20;103038.81;;;8.07;71.01
68075;BME280;54864;52.002;5.468;2022-11-12T00:36:21;103030.06;;;8.08;70.87
68075;BME280;54864;52.002;5.468;2022-11-12T00:37:25;103024.78;;;8.05;71.02
68075;BME280;54864;52.002;5.468;2022-11-12T00:38:25;103028.31;;;8.04;70.42
68075;BME280;54864;52.002;5.468;2022-11-12T00:39:27;103030.06;;;8.05;70.43
68075;BME280;54864;52.002;5.468;2022-11-12T00:40:29;103032.69;;;8.03;70.42
68075;BME280;54864;52.002;5.468;2022-11-12T00:41:30;103026.53;;;8.01;70.27
68075;BME280;54864;52.002;5.468;2022-11-12T00:42:31;103027.41;;;8.00;70.33
68075;BME280;54864;52.002;5.468;2022-11-12T00:43:33;103027.41;;;7.97;70.36
68075;BME280;54864;52.002;5.468;2022-11-12T00:44:34;103023.03;;;7.91;70.59
68075;BME280;54864;52.002;5.468;2022-11-12T00:45:36;103029.16;;;7.90;71.13
68075;BME280;54864;52.002;5.468;2022-11-12T00:46:37;103026.53;;;7.93;70.92
68075;BME280;54864;52.002;5.468;2022-11-12T00:47:40;103030.03;;;7.95;70.96
68075;BME280;54864;52.002;5.468;2022-11-12T00:48:41;103024.78;;;7.94;70.82
68075;BME280;54864;52.002;5.468;2022-11-12T00:49:43;103027.41;;;7.92;71.05
68075;BME280;54864;52.002;5.468;2022-11-12T00:50:44;103027.41;;;7.91;70.11
68075;BME280;54864;52.002;5.468;2022-11-12T00:51:46;103028.28;;;7.90;70.09
68075;BME280;54864;52.002;5.468;2022-11-12T00:52:50;103033.53;;;7.90;70.71
68075;BME280;54864;52.002;5.468;2022-11-12T00:53:53;103023.03;;;7.87;70.32
68075;BME280;54864;52.002;5.468;2022-11-12T00:54:55;103024.78;;;7.88;70.98
68075;BME280;54864;52.002;5.468;2022-11-12T00:56:00;103027.41;;;7.80;71.01
68075;BME280;54864;52.002;5.468;2022-11-12T00:57:02;103031.78;;;7.84;70.95
68075;BME280;54864;52.002;5.468;2022-11-12T00:58:04;103019.53;;;7.86;71.15
68075;BME280;54864;52.002;5.468;2022-11-12T00:59:05;103023.03;;;7.87;70.59
68075;BME280;54864;52.002;5.468;2022-11-12T01:00:14;103022.16;;;7.86;70.64
68075;BME280;54864;52.002;5.468;2022-11-12T01:01:16;103030.03;;;7.88;70.29
68075;BME280;54864;52.002;5.468;2022-11-12T01:02:18;103022.16;;;7.83;70.73
68075;BME280;54864;52.002;5.468;2022-11-12T01:03:19;103019.53;;;7.82;70.07
68075;BME280;54864;52.002;5.468;2022-11-12T01:04:21;103027.41;;;7.83;70.32
68075;BME280;54864;52.002;5.468;2022-11-12T01:05:22;103019.53;;;7.83;70.59
68075;BME280;54864;52.002;5.468;2022-11-12T01:06:24;103027.41;;;7.82;70.32
68075;BME280;54864;52.002;5.468;2022-11-12T01:07:27;103019.53;;;7.82;70.13
68075;BME280;54864;52.002;5.468;2022-11-12T01:08:30;103024.75;;;7.76;70.22
68075;BME280;54864;52.002;5.468;2022-11-12T01:09:31;103020.38;;;7.78;69.80
68075;BME280;54864;52.002;5.468;2022-11-12T01:10:34;103023.88;;;7.78;70.68
68075;BME280;54864;52.002;5.468;2022-11-12T01:11:35;103022.09;;;7.74;70.85
68075;BME280;54864;52.002;5.468;2022-11-12T01:12:37;103023.84;;;7.74;70.34
68075;BME280;54864;52.002;5.468;2022-11-12T01:13:40;103026.47;;;7.69;70.47
68075;BME280;54864;52.002;5.468;2022-11-12T01:14:44;103025.59;;;7.69;71.52
68075;BME280;54864;52.002;5.468;2022-11-12T01:15:45;103029.09;;;7.74;71.19
68075;BME280;54864;52.002;5.468;2022-11-12T01:16:46;103024.72;;;7.67;71.18
68075;BME280;54864;52.002;5.468;2022-11-12T01:17:47;103024.72;;;7.68;71.43
68075;BME280;54864;52.002;5.468;2022-11-12T01:18:51;103024.72;;;7.74;72.08
68075;BME280;54864;52.002;5.468;2022-11-12T01:19:53;103030.84;;;7.70;72.40
68075;BME280;54864;52.002;5.468;2022-11-12T01:20:59;103037.84;;;7.68;72.20
68075;BME280;54864;52.002;5.468;2022-11-12T01:22:00;103025.63;;;7.76;72.71
68075;BME280;54864;52.002;5.468;2022-11-12T01:23:02;103027.34;;;7.63;72.95
68075;BME280;54864;52.002;5.468;2022-11-12T01:24:06;103019.47;;;7.59;72.91
68075;BME280;54864;52.002;5.468;2022-11-12T01:25:09;103024.72;;;7.68;73.07
68075;BME280;54864;52.002;5.468;2022-11-12T01:26:13;103021.22;;;7.64;73.13
68075;BME280;54864;52.002;5.468;2022-11-12T01:27:15;103022.09;;;7.71;73.04
68075;BME280;54864;52.002;5.468;2022-11-12T01:28:17;103026.47;;;7.72;73.11
68075;BME280;54864;52.002;5.468;2022-11-12T01:29:18;103025.63;;;7.78;72.99
68075;BME280;54864;52.002;5.468;2022-11-12T01:30:20;103020.41;;;7.84;72.68
68075;BME280;54864;52.002;5.468;2022-11-12T01:31:23;103018.66;;;7.86;72.07
68075;BME280;54864;52.002;5.468;2022-11-12T01:32:28;103024.78;;;7.85;72.67
68075;BME280;54864;52.002;5.468;2022-11-12T01:33:30;103025.66;;;7.91;71.88
68075;BME280;54864;52.002;5.468;2022-11-12T01:34:31;103022.16;;;7.89;72.12
68075;BME280;54864;52.002;5.468;2022-11-12T01:35:33;103020.41;;;7.91;71.84
68075;BME280;54864;52.002;5.468;2022-11-12T01:36:36;103024.78;;;7.89;72.67
68075;BME280;54864;52.002;5.468;2022-11-12T01:37:39;103022.16;;;7.91;72.61
68075;BME280;54864;52.002;5.468;2022-11-12T01:38:41;103019.53;;;7.92;72.56
68075;BME280;54864;52.002;5.468;2022-11-12T01:39:45;103015.16;;;7.94;71.97
68075;BME280;54864;52.002;5.468;2022-11-12T01:40:46;103022.16;;;8.00;72.08
68075;BME280;54864;52.002;5.468;2022-11-12T01:41:49;103020.41;;;7.98;71.56
68075;BME280;54864;52.002;5.468;2022-11-12T01:42:51;103019.53;;;8.00;71.97
68075;BME280;54864;52.002;5.468;2022-11-12T01:44:15;103026.53;;;7.98;72.48
68075;BME280;54864;52.002;5.468;2022-11-12T01:45:17;103016.91;;;7.97;72.11
68075;BME280;54864;52.002;5.468;2022-11-12T01:46:25;103016.91;;;7.99;71.85
68075;BME280;54864;52.002;5.468;2022-11-12T01:47:31;103016.91;;;7.95;72.29
68075;BME280;54864;52.002;5.468;2022-11-12T01:48:37;103002.91;;;7.97;71.75
68075;BME280;54864;52.002;5.468;2022-11-12T01:49:49;102999.41;;;7.99;71.61
68075;BME280;54864;52.002;5.468;2022-11-12T01:50:54;103007.28;;;8.04;72.32
68075;BME280;54864;52.002;5.468;2022-11-12T01:51:59;103005.53;;;7.98;72.15
68075;BME280;54864;52.002;5.468;2022-11-12T01:53:11;102999.41;;;7.99;71.63
68075;BME280;54864;52.002;5.468;2022-11-12T01:54:16;103004.66;;;7.96;71.40
68075;BME280;54864;52.002;5.468;2022-11-12T01:55:25;103003.78;;;7.95;71.70
68075;BME280;54864;52.002;5.468;2022-11-12T01:56:31;103001.16;;;7.97;71.41
68075;BME280;54864;52.002;5.468;2022-11-12T01:57:36;103001.16;;;7.94;71.38
68075;BME280;54864;52.002;5.468;2022-11-12T01:58:43;103000.28;;;7.95;71.65
68075;BME280;54864;52.002;5.468;2022-11-12T01:59:48;103007.28;;;7.88;71.82
68075;BME280;54864;52.002;5.468;2022-11-12T02:00:53;103006.41;;;7.91;71.49
68075;BME280;54864;52.002;5.468;2022-11-12T02:01:55;103010.78;;;7.92;71.58
68075;BME280;54864;52.002;5.468;2022-11-12T02:02:58;103009.91;;;7.85;71.30
68075;BME280;54864;52.002;5.468;2022-11-12T02:04:01;103009.91;;;7.81;71.93
68075;BME280;54864;52.002;5.468;2022-11-12T02:05:07;103007.28;;;7.85;71.81
68075;BME280;54864;52.002;5.468;2022-11-12T02:06:12;103010.78;;;7.86;71.80
68075;BME280;54864;52.002;5.468;2022-11-12T02:07:16;103006.41;;;7.88;71.90
68075;BME280;54864;52.002;5.468;2022-11-12T02:08:19;103004.66;;;7.94;71.30
68075;BME280;54864;52.002;5.468;2022-11-12T02:09:24;103014.28;;;7.85;71.49
68075;BME280;54864;52.002;5.468;2022-11-12T02:10:27;103002.91;;;7.83;71.36
68075;BME280;54864;52.002;5.468;2022-11-12T02:11:29;103006.41;;;7.83;71.36
68075;BME280;54864;52.002;5.468;2022-11-12T02:12:30;103008.16;;;7.83;71.61
68075;BME280;54864;52.002;5.468;2022-11-12T02:13:51;103006.41;;;7.80;71.20
68075;BME280;54864;52.002;5.468;2022-11-12T02:15:05;103003.78;;;7.86;70.96
68075;BME280;54864;52.002;5.468;2022-11-12T02:16:07;103002.03;;;7.84;71.06
68075;BME280;54864;52.002;5.468;2022-11-12T02:17:11;102996.78;;;7.81;71.50
68075;BME280;54864;52.002;5.468;2022-11-12T02:18:13;103001.16;;;7.82;71.69
68075;BME280;54864;52.002;5.468;2022-11-12T02:19:18;102995.03;;;7.83;71.53
68075;BME280;54864;52.002;5.468;2022-11-12T02:20:21;102995.91;;;7.85;71.82
68075;BME280;54864;52.002;5.468;2022-11-12T02:21:24;103002.00;;;7.79;70.97
68075;BME280;54864;52.002;5.468;2022-11-12T02:22:25;102993.22;;;7.77;72.32
68075;BME280;54864;52.002;5.468;2022-11-12T02:23:27;102994.97;;;7.77;72.19
68075;BME280;54864;52.002;5.468;2022-11-12T02:24:33;102980.09;;;7.79;72.16
68075;BME280;54864;52.002;5.468;2022-11-12T02:25:36;102988.91;;;7.82;71.22
68075;BME280;54864;52.002;5.468;2022-11-12T02:26:42;102990.66;;;7.83;71.19
68075;BME280;54864;52.002;5.468;2022-11-12T02:27:47;102995.03;;;7.81;71.42
68075;BME280;54864;52.002;5.468;2022-11-12T02:28:53;102983.59;;;7.78;71.84
68075;BME280;54864;52.002;5.468;2022-11-12T02:29:54;102984.47;;;7.75;72.13
68075;BME280;54864;52.002;5.468;2022-11-12T02:30:56;102978.34;;;7.76;71.98
68075;BME280;54864;52.002;5.468;2022-11-12T02:31:57;102983.59;;;7.79;71.55
68075;BME280;54864;52.002;5.468;2022-11-12T02:32:59;102985.34;;;7.79;71.67
68075;BME280;54864;52.002;5.468;2022-11-12T02:34:01;102978.34;;;7.78;71.75
68075;BME280;54864;52.002;5.468;2022-11-12T02:35:04;102983.63;;;7.84;71.52
68075;BME280;54864;52.002;5.468;2022-11-12T02:36:06;102981.00;;;7.81;71.92
68075;BME280;54864;52.002;5.468;2022-11-12T02:37:09;102991.50;;;7.81;71.59
68075;BME280;54864;52.002;5.468;2022-11-12T02:38:10;102988.00;;;7.80;71.71
68075;BME280;54864;52.002;5.468;2022-11-12T02:39:11;102986.28;;;7.84;71.86
68075;BME280;54864;52.002;5.468;2022-11-12T02:40:12;102984.50;;;7.81;71.29
68075;BME280;54864;52.002;5.468;2022-11-12T02:41:15;102982.75;;;7.83;71.28
68075;BME280;54864;52.002;5.468;2022-11-12T02:42:16;102978.34;;;7.79;71.01
68075;BME280;54864;52.002;5.468;2022-11-12T02:43:18;102986.22;;;7.79;70.86
68075;BME280;54864;52.002;5.468;2022-11-12T02:44:18;102981.84;;;7.78;71.40
68075;BME280;54864;52.002;5.468;2022-11-12T02:45:21;102984.47;;;7.78;71.06
68075;BME280;54864;52.002;5.468;2022-11-12T02:46:22;102980.13;;;7.80;71.38
68075;BME280;54864;52.002;5.468;2022-11-12T02:47:24;102986.22;;;7.79;70.95
68075;BME280;54864;52.002;5.468;2022-11-12T02:48:25;102984.47;;;7.77;71.42
68075;BME280;54864;52.002;5.468;2022-11-12T02:49:27;102990.59;;;7.76;71.04
68075;BME280;54864;52.002;5.468;2022-11-12T02:50:28;102988.84;;;7.76;71.06
68075;BME280;54864;52.002;5.468;2022-11-12T02:51:30;102994.09;;;7.73;70.94
68075;BME280;54864;52.002;5.468;2022-11-12T02:52:32;102989.72;;;7.69;71.13
68075;BME280;54864;52.002;5.468;2022-11-12T02:53:34;102996.72;;;7.70;71.52
68075;BME280;54864;52.002;5.468;2022-11-12T02:54:35;102988.84;;;7.67;71.79
68075;BME280;54864;52.002;5.468;2022-11-12T02:55:37;102984.47;;;7.69;70.97
68075;BME280;54864;52.002;5.468;2022-11-12T02:56:38;102986.22;;;7.66;71.23
68075;BME280;54864;52.002;5.468;2022-11-12T02:57:40;102994.09;;;7.70;71.52
68075;BME280;54864;52.002;5.468;2022-11-12T02:58:41;102993.22;;;7.68;71.53
68075;BME280;54864;52.002;5.468;2022-11-12T02:59:43;102995.84;;;7.70;71.61
68075;BME280;54864;52.002;5.468;2022-11-12T03:00:44;102994.09;;;7.67;72.07
68075;BME280;54864;52.002;5.468;2022-11-12T03:01:47;102993.22;;;7.68;71.59
68075;BME280;54864;52.002;5.468;2022-11-12T03:02:48;102993.22;;;7.67;71.56
68075;BME280;54864;52.002;5.468;2022-11-12T03:03:58;102991.47;;;7.69;71.55
68075;BME280;54864;52.002;5.468;2022-11-12T03:05:00;102993.22;;;7.68;71.19
68075;BME280;54864;52.002;5.468;2022-11-12T03:06:02;102994.97;;;7.66;71.58
68075;BME280;54864;52.002;5.468;2022-11-12T03:07:04;103002.84;;;7.68;71.92
68075;BME280;54864;52.002;5.468;2022-11-12T03:08:08;102995.84;;;7.73;71.96
68075;BME280;54864;52.002;5.468;2022-11-12T03:09:10;102993.22;;;7.70;71.58
68075;BME280;54864;52.002;5.468;2022-11-12T03:10:12;102993.22;;;7.70;71.90
68075;BME280;54864;52.002;5.468;2022-11-12T03:11:15;102990.59;;;7.70;72.51
68075;BME280;54864;52.002;5.468;2022-11-12T03:12:18;102982.72;;;7.71;72.46
68075;BME280;54864;52.002;5.468;2022-11-12T03:13:19;102984.47;;;7.69;72.15
68075;BME280;54864;52.002;5.468;2022-11-12T03:14:22;102989.72;;;7.71;71.71
68075;BME280;54864;52.002;5.468;2022-11-12T03:15:23;102981.84;;;7.72;71.90
68075;BME280;54864;52.002;5.468;2022-11-12T03:16:26;102987.09;;;7.69;72.36
68075;BME280;54864;52.002;5.468;2022-11-12T03:17:26;102979.22;;;7.71;72.00
68075;BME280;54864;52.002;5.468;2022-11-12T03:18:28;102978.34;;;7.70;72.50
68075;BME280;54864;52.002;5.468;2022-11-12T03:19:29;102978.34;;;7.75;71.76
68075;BME280;54864;52.002;5.468;2022-11-12T03:20:31;102975.72;;;7.73;72.38
68075;BME280;54864;52.002;5.468;2022-11-12T03:21:34;102978.38;;;7.84;71.86
68075;BME280;54864;52.002;5.468;2022-11-12T03:22:37;102974.84;;;7.76;71.99
68075;BME280;54864;52.002;5.468;2022-11-12T03:23:39;102974.84;;;7.73;71.43
68075;BME280;54864;52.002;5.468;2022-11-12T03:24:42;102975.72;;;7.70;72.22
68075;BME280;54864;52.002;5.468;2022-11-12T03:25:43;102973.09;;;7.72;71.52
68075;BME280;54864;52.002;5.468;2022-11-12T03:26:45;102969.59;;;7.73;71.71
68075;BME280;54864;52.002;5.468;2022-11-12T03:27:45;102971.34;;;7.77;72.09
68075;BME280;54864;52.002;5.468;2022-11-12T03:28:49;102973.09;;;7.76;71.96
68075;BME280;54864;52.002;5.468;2022-11-12T03:29:50;102973.09;;;7.72;71.41
68075;BME280;54864;52.002;5.468;2022-11-12T03:30:55;102969.59;;;7.73;71.49
68075;BME280;54864;52.002;5.468;2022-11-12T03:31:58;102968.72;;;7.75;71.78
68075;BME280;54864;52.002;5.468;2022-11-12T03:33:00;102966.97;;;7.71;71.36
68075;BME280;54864;52.002;5.468;2022-11-12T03:34:02;102964.34;;;7.71;71.43
68075;BME280;54864;52.002;5.468;2022-11-12T03:35:05;102968.72;;;7.72;71.18
68075;BME280;54864;52.002;5.468;2022-11-12T03:36:07;102963.47;;;7.72;71.21
68075;BME280;54864;52.002;5.468;2022-11-12T03:37:09;102966.97;;;7.73;71.72
68075;BME280;54864;52.002;5.468;2022-11-12T03:38:10;102961.72;;;7.70;71.86
68075;BME280;54864;52.002;5.468;2022-11-12T03:39:14;102965.22;;;7.70;71.81
68075;BME280;54864;52.002;5.468;2022-11-12T03:40:15;102969.59;;;7.68;71.22
68075;BME280;54864;52.002;5.468;2022-11-12T03:41:18;102960.84;;;7.64;71.27
68075;BME280;54864;52.002;5.468;2022-11-12T03:42:19;102970.47;;;7.70;71.10
68075;BME280;54864;52.002;5.468;2022-11-12T03:43:20;102973.97;;;7.64;71.52
68075;BME280;54864;52.002;5.468;2022-11-12T03:44:22;102973.97;;;7.68;70.92
68075;BME280;54864;52.002;5.468;2022-11-12T03:45:25;102966.09;;;7.61;71.35
68075;BME280;54864;52.002;5.468;2022-11-12T03:46:28;102970.47;;;7.61;71.24
68075;BME280;54864;52.002;5.468;2022-11-12T03:47:28;102971.34;;;7.60;71.22
68075;BME280;54864;52.002;5.468;2022-11-12T03:48:30;102972.22;;;7.63;71.28
68075;BME280;54864;52.002;5.468;2022-11-12T03:49:32;102972.22;;;7.60;70.94
68075;BME280;54864;52.002;5.468;2022-11-12T03:50:33;102977.47;;;7.60;71.33
68075;BME280;54864;52.002;5.468;2022-11-12T03:51:34;102969.56;;;7.56;71.32
68075;BME280;54864;52.002;5.468;2022-11-12T03:52:36;102976.59;;;7.58;71.13
68075;BME280;54864;52.002;5.468;2022-11-12T03:53:37;102982.69;;;7.59;70.77
68075;BME280;54864;52.002;5.468;2022-11-12T03:54:40;102984.47;;;7.61;71.05
68075;BME280;54864;52.002;5.468;2022-11-12T03:55:41;102979.19;;;7.54;71.31
68075;BME280;54864;52.002;5.468;2022-11-12T03:56:43;102985.31;;;7.57;71.42
68075;BME280;54864;52.002;5.468;2022-11-12T03:57:45;102982.69;;;7.54;71.65
68075;BME280;54864;52.002;5.468;2022-11-12T03:58:48;102977.44;;;7.56;71.15
68075;BME280;54864;52.002;5.468;2022-11-12T03:59:48;102976.56;;;7.55;71.28
68075;BME280;54864;52.002;5.468;2022-11-12T04:00:50;102975.69;;;7.53;70.83
68075;BME280;54864;52.002;5.468;2022-11-12T04:01:51;102975.69;;;7.56;71.14
68075;BME280;54864;52.002;5.468;2022-11-12T04:02:53;102977.44;;;7.53;70.88
68075;BME280;54864;52.002;5.468;2022-11-12T04:03:54;102978.31;;;7.50;70.80
68075;BME280;54864;52.002;5.468;2022-11-12T04:04:56;102974.81;;;7.51;70.91
68075;BME280;54864;52.002;5.468;2022-11-12T04:06:16;102968.69;;;7.49;70.61
68075;BME280;54864;52.002;5.468;2022-11-12T04:07:35;102981.81;;;7.49;71.23
68075;BME280;54864;52.002;5.468;2022-11-12T04:08:54;102975.69;;;7.49;71.21
68075;BME280;54864;52.002;5.468;2022-11-12T04:09:58;102983.56;;;7.47;71.15
68075;BME280;54864;52.002;5.468;2022-11-12T04:10:59;102981.81;;;7.43;71.26
68075;BME280;54864;52.002;5.468;2022-11-12T04:12:01;102984.44;;;7.43;71.24
68075;BME280;54864;52.002;5.468;2022-11-12T04:13:22;102990.56;;;7.44;71.07
68075;BME280;54864;52.002;5.468;2022-11-12T04:14:29;102985.28;;;7.42;71.79
68075;BME280;54864;52.002;5.468;2022-11-12T04:15:31;102990.53;;;7.39;71.97
68075;BME280;54864;52.002;5.468;2022-11-12T04:16:32;102984.41;;;7.42;72.21
68075;BME280;54864;52.002;5.468;2022-11-12T04:17:51;102988.78;;;7.40;71.38
68075;BME280;54864;52.002;5.468;2022-11-12T04:19:12;102981.78;;;7.42;72.04
68075;BME280;54864;52.002;5.468;2022-11-12T04:20:32;102989.66;;;7.42;71.44
68075;BME280;54864;52.002;5.468;2022-11-12T04:22:02;102995.78;;;7.41;71.63
68075;BME280;54864;52.002;5.468;2022-11-12T04:23:06;102999.28;;;7.40;71.25
68075;BME280;54864;52.002;5.468;2022-11-12T04:24:07;102987.03;;;7.42;71.70
68075;BME280;54864;52.002;5.468;2022-11-12T04:25:09;102999.28;;;7.40;71.36
68075;BME280;54864;52.002;5.468;2022-11-12T04:26:28;102994.91;;;7.40;71.09
68075;BME280;54864;52.002;5.468;2022-11-12T04:27:32;102988.78;;;7.38;71.75
68075;BME280;54864;52.002;5.468;2022-11-12T04:28:34;102980.91;;;7.35;71.31
68075;BME280;54864;52.002;5.468;2022-11-12T04:29:36;102983.53;;;7.38;71.10
68075;BME280;54864;52.002;5.468;2022-11-12T04:30:55;102980.03;;;7.35;71.27
68075;BME280;54864;52.002;5.468;2022-11-12T04:31:56;102980.91;;;7.32;71.38
68075;BME280;54864;52.002;5.468;2022-11-12T04:32:57;102982.66;;;7.33;71.45
68075;BME280;54864;52.002;5.468;2022-11-12T04:34:00;102989.66;;;7.31;71.65
68075;BME280;54864;52.002;5.468;2022-11-12T04:35:17;102982.66;;;7.36;71.05
68075;BME280;54864;52.002;5.468;2022-11-12T04:36:18;102980.88;;;7.27;71.27
68075;BME280;54864;52.002;5.468;2022-11-12T04:37:21;102984.38;;;7.29;71.18
68075;BME280;54864;52.002;5.468;2022-11-12T04:38:23;102986.16;;;7.32;71.29
68075;BME280;54864;52.002;5.468;2022-11-12T04:39:25;102978.25;;;7.26;71.75
68075;BME280;54864;52.002;5.468;2022-11-12T04:40:28;102984.38;;;7.28;71.30
68075;BME280;54864;52.002;5.468;2022-11-12T04:41:48;102980.88;;;7.24;71.50
68075;BME280;54864;52.002;5.468;2022-11-12T04:43:09;102972.13;;;7.22;71.71
68075;BME280;54864;52.002;5.468;2022-11-12T04:44:30;102968.63;;;7.25;71.51
68075;BME280;54864;52.002;5.468;2022-11-12T04:45:51;102966.88;;;7.25;71.15
68075;BME280;54864;52.002;5.468;2022-11-12T04:46:54;102979.13;;;7.22;71.44
68075;BME280;54864;52.002;5.468;2022-11-12T04:47:54;102968.63;;;7.22;71.51
68075;BME280;54864;52.002;5.468;2022-11-12T04:48:56;102967.75;;;7.23;71.41
68075;BME280;54864;52.002;5.468;2022-11-12T04:49:57;102970.38;;;7.20;71.41
68075;BME280;54864;52.002;5.468;2022-11-12T04:51:01;102961.63;;;7.24;71.33
68075;BME280;54864;52.002;5.468;2022-11-12T04:52:03;102964.25;;;7.25;71.24
68075;BME280;54864;52.002;5.468;2022-11-12T04:53:08;102972.13;;;7.21;71.71
68075;BME280;54864;52.002;5.468;2022-11-12T04:54:10;102955.50;;;7.19;71.40
68075;BME280;54864;52.002;5.468;2022-11-12T04:55:11;102961.63;;;7.19;71.68
68075;BME280;54864;52.002;5.468;2022-11-12T04:56:14;102964.25;;;7.18;71.84
68075;BME280;54864;52.002;5.468;2022-11-12T04:57:15;102959.00;;;7.22;71.60
68075;BME280;54864;52.002;5.468;2022-11-12T04:58:17;102958.06;;;7.13;71.92
68075;BME280;54864;52.002;5.468;2022-11-12T04:59:19;102954.63;;;7.17;72.09
68075;BME280;54864;52.002;5.468;2022-11-12T05:00:21;102961.63;;;7.19;71.84
68075;BME280;54864;52.002;5.468;2022-11-12T05:01:24;102961.63;;;7.19;71.81
68075;BME280;54864;52.002;5.468;2022-11-12T05:02:24;102958.13;;;7.20;72.01
68075;BME280;54864;52.002;5.468;2022-11-12T05:03:28;102958.13;;;7.25;71.79
68075;BME280;54864;52.002;5.468;2022-11-12T05:04:29;102954.63;;;7.21;71.06
68075;BME280;54864;52.002;5.468;2022-11-12T05:05:31;102952.00;;;7.21;71.76
68075;BME280;54864;52.002;5.468;2022-11-12T05:06:32;102953.75;;;7.22;71.53
68075;BME280;54864;52.002;5.468;2022-11-12T05:07:59;102954.63;;;7.21;71.74
68075;BME280;54864;52.002;5.468;2022-11-12T05:09:02;102950.25;;;7.20;71.69
68075;BME280;54864;52.002;5.468;2022-11-12T05:10:05;102948.50;;;7.21;71.21
68075;BME280;54864;52.002;5.468;2022-11-12T05:11:07;102951.13;;;7.21;71.87
68075;BME280;54864;52.002;5.468;2022-11-12T05:12:09;102949.38;;;7.20;71.31
68075;BME280;54864;52.002;5.468;2022-11-12T05:13:11;102953.75;;;7.22;71.42
68075;BME280;54864;52.002;5.468;2022-11-12T05:14:12;102945.88;;;7.21;70.89
68075;BME280;54864;52.002;5.468;2022-11-12T05:15:14;102946.78;;;7.26;71.04
68075;BME280;54864;52.002;5.468;2022-11-12T05:16:16;102944.13;;;7.20;70.97
68075;BME280;54864;52.002;5.468;2022-11-12T05:17:17;102948.50;;;7.19;71.23
68075;BME280;54864;52.002;5.468;2022-11-12T05:18:19;102946.75;;;7.21;71.15
68075;BME280;54864;52.002;5.468;2022-11-12T05:19:20;102945.00;;;7.20;71.06
68075;BME280;54864;52.002;5.468;2022-11-12T05:20:22;102945.88;;;7.18;71.11
68075;BME280;54864;52.002;5.468;2022-11-12T05:21:23;102946.75;;;7.20;71.05
68075;BME280;54864;52.002;5.468;2022-11-12T05:22:44;102936.22;;;7.09;71.33
68075;BME280;54864;52.002;5.468;2022-11-12T05:23:46;102939.75;;;7.16;71.62
68075;BME280;54864;52.002;5.468;2022-11-12T05:24:46;102944.09;;;7.12;71.58
68075;BME280;54864;52.002;5.468;2022-11-12T05:25:48;102934.47;;;7.11;71.48
68075;BME280;54864;52.002;5.468;2022-11-12T05:26:49;102933.59;;;7.12;71.28
68075;BME280;54864;52.002;5.468;2022-11-12T05:27:53;102940.59;;;7.12;71.23
68075;BME280;54864;52.002;5.468;2022-11-12T05:28:53;102928.34;;;7.08;71.59
68075;BME280;54864;52.002;5.468;2022-11-12T05:29:55;102933.59;;;7.09;71.54
68075;BME280;54864;52.002;5.468;2022-11-12T05:30:56;102939.72;;;7.11;71.63
68075;BME280;54864;52.002;5.468;2022-11-12T05:31:58;102938.84;;;7.09;71.72
68075;BME280;54864;52.002;5.468;2022-11-12T05:32:59;102937.09;;;7.11;71.52
68075;BME280;54864;52.002;5.468;2022-11-12T05:34:01;102950.22;;;7.13;71.59
68075;BME280;54864;52.002;5.468;2022-11-12T05:35:03;102941.47;;;7.11;71.36
68075;BME280;54864;52.002;5.468;2022-11-12T05:36:06;102941.47;;;7.12;70.92